Time;durP1;ratioP1;P1;durP2;ratioP2;P2;SDS_P1;SDS_P2;PMS_P1;PMS_P2;Temp;Humidity;BMP_temperature;BMP_pressure;BME280_temperature;BME280_humidity;BME280_pressure;Samples;Min_cycle;Max_cycle;Signal;HPM_P1;HPM_P2
2022/01/24 00:01:46;;;;;;;8.60;5.40;;;;;;;-5.03;100.00;95091.47;5071994;28;20271;-65
2022/01/24 00:04:12;;;;;;;8.67;5.70;;;;;;;-5.01;100.00;95092.25;5070055;28;20596;-65
2022/01/24 00:06:39;;;;;;;12.90;6.20;;;;;;;-5.06;100.00;95091.50;5071485;28;20188;-60
2022/01/24 00:09:06;;;;;;;12.33;6.33;;;;;;;-5.07;100.00;95097.34;5070288;28;20198;-60
2022/01/24 00:17:06;;;;;;;10.07;6.83;;;;;;;-5.09;100.00;95092.41;5071609;28;20208;-65
2022/01/24 00:27:47;;;;;;;11.73;6.47;;;;;;;-4.80;100.00;95100.13;5071832;28;20752;-61
2022/01/24 00:30:14;;;;;;;9.53;6.57;;;;;;;-4.74;100.00;95104.94;5071561;28;20180;-60
2022/01/24 00:32:40;;;;;;;12.50;6.67;;;;;;;-4.79;100.00;95111.69;5071082;28;20195;-64
2022/01/24 00:35:06;;;;;;;9.37;6.37;;;;;;;-4.75;100.00;95105.81;5071625;28;20562;-60
2022/01/24 00:37:33;;;;;;;11.33;6.40;;;;;;;-4.80;100.00;95109.19;5071458;28;20198;-64
2022/01/24 00:39:59;;;;;;;9.40;6.03;;;;;;;-4.86;100.00;95109.31;5071213;28;20196;-61
2022/01/24 00:48:04;;;;;;;8.27;5.77;;;;;;;-4.99;100.00;95108.75;5071697;28;20182;-60
2022/01/24 00:56:01;;;;;;;9.73;6.43;;;;;;;-4.83;100.00;95119.19;5071512;28;20218;-66
2022/01/24 00:58:27;;;;;;;11.80;6.10;;;;;;;-4.85;100.00;95125.84;5074621;28;20203;-60
2022/01/24 01:00:53;;;;;;;10.60;6.03;;;;;;;-4.89;100.00;95120.13;5073654;28;20181;-60
2022/01/24 01:03:19;;;;;;;9.77;5.90;;;;;;;-4.79;100.00;95119.13;5073610;28;20204;-66
2022/01/24 01:19:45;;;;;;;12.20;6.33;;;;;;;-4.50;100.00;95121.84;5074424;28;20217;-66
2022/01/24 01:22:11;;;;;;;13.17;7.13;;;;;;;-4.71;100.00;95116.47;5074708;28;20181;-60
2022/01/24 01:24:43;;;;;;;10.73;5.77;;;;;;;-4.69;100.00;95114.78;5074476;28;20208;-66
2022/01/24 01:27:15;;;;;;;9.10;6.00;;;;;;;-4.78;100.00;95114.94;5074295;28;20184;-62
2022/01/24 01:54:19;;;;;;;11.50;6.23;;;;;;;-4.71;100.00;95109.03;5075011;28;20270;-66
2022/01/24 01:56:44;;;;;;;11.37;6.57;;;;;;;-4.80;100.00;95110.03;5075446;28;20187;-66
2022/01/24 01:59:11;;;;;;;10.60;6.10;;;;;;;-4.79;100.00;95108.38;5074623;28;20204;-62
2022/01/24 02:01:36;;;;;;;13.60;6.20;;;;;;;-4.76;100.00;95109.13;5074161;28;20177;-61
2022/01/24 02:04:05;;;;;;;11.87;6.53;;;;;;;-4.83;100.00;95112.56;5078913;23;20289;-66
2022/01/24 02:06:32;;;;;;;9.30;6.33;;;;;;;-4.97;100.00;95104.56;5056270;28;20251;-66
2022/01/24 02:09:09;;;;;;;11.63;6.67;;;;;;;-4.89;100.00;95101.94;5073753;28;20291;-61
2022/01/24 02:11:34;;;;;;;8.50;5.87;;;;;;;-4.93;100.00;95107.81;5073173;28;20176;-67
2022/01/24 02:14:11;;;;;;;14.13;7.70;;;;;;;-5.09;100.00;95102.31;5074811;28;20241;-67
2022/01/24 02:16:49;;;;;;;12.33;6.63;;;;;;;-5.22;100.00;95104.19;5072958;28;20260;-62
2022/01/24 02:20:05;;;;;;;9.97;6.33;;;;;;;-5.11;100.00;95104.00;5075448;28;20795;-68
2022/01/24 02:22:38;;;;;;;11.77;6.67;;;;;;;-5.22;100.00;95111.63;5068797;28;20195;-67
2022/01/24 02:24:57;;;;;;;10.97;6.33;;;;;;;-5.13;100.00;95115.59;5072845;28;20216;-61
2022/01/24 02:27:26;;;;;;;12.23;7.03;;;;;;;-5.04;100.00;95124.50;5080914;23;20239;-62
2022/01/24 02:30:07;;;;;;;12.83;7.00;;;;;;;-4.86;100.00;95126.66;5072389;28;20651;-65
2022/01/24 02:32:37;;;;;;;15.47;7.67;;;;;;;-4.71;100.00;95121.44;5081380;23;20551;-62
2022/01/24 02:35:06;;;;;;;13.43;6.63;;;;;;;-4.79;100.00;95128.19;5093170;23;20252;-63
2022/01/24 02:37:32;;;;;;;11.97;7.07;;;;;;;-4.86;100.00;95121.72;5071911;28;20299;-62
2022/01/24 02:40:03;;;;;;;14.07;7.60;;;;;;;-4.91;100.00;95123.47;5073792;28;20668;-62
2022/01/24 02:53:20;;;;;;;9.13;6.53;;;;;;;-4.87;100.00;95138.25;5073833;28;20258;-65
2022/01/24 02:55:47;;;;;;;13.73;7.63;;;;;;;-4.89;100.00;95134.16;5073753;28;20192;-67
2022/01/24 02:58:15;;;;;;;13.03;8.33;;;;;;;-4.88;100.00;95140.75;5073156;28;20211;-60
2022/01/24 03:00:45;;;;;;;12.10;7.37;;;;;;;-4.81;100.00;95134.84;5071851;28;20196;-62
2022/01/24 03:03:11;;;;;;;13.07;7.90;;;;;;;-4.70;100.00;95146.19;5072232;28;20208;-64
2022/01/24 03:05:37;;;;;;;11.00;7.47;;;;;;;-4.59;100.00;95150.97;5072568;28;20625;-62
2022/01/24 03:08:03;;;;;;;10.13;6.80;;;;;;;-4.53;100.00;95156.63;5072646;28;20695;-60
2022/01/24 03:10:41;;;;;;;13.33;7.80;;;;;;;-4.57;100.00;95144.31;5072606;28;20188;-60
2022/01/24 03:13:19;;;;;;;14.10;6.90;;;;;;;-4.36;100.00;95152.13;5072306;28;20659;-66
2022/01/24 03:15:49;;;;;;;17.17;7.40;;;;;;;-4.32;100.00;95158.69;5072358;28;20185;-65
2022/01/24 03:18:16;;;;;;;13.03;7.13;;;;;;;-4.60;100.00;95161.72;5072154;28;20200;-60
2022/01/24 03:20:42;;;;;;;12.17;7.13;;;;;;;-4.85;100.00;95158.06;5071860;28;20568;-66
2022/01/24 03:23:07;;;;;;;15.40;8.10;;;;;;;-4.96;100.00;95162.38;5072251;28;20193;-64
2022/01/24 03:25:33;;;;;;;10.47;6.70;;;;;;;-4.76;100.00;95162.84;5072341;28;20258;-65
2022/01/24 03:27:59;;;;;;;14.30;8.20;;;;;;;-4.80;100.00;95166.22;5072287;28;20207;-60
2022/01/24 03:30:28;;;;;;;11.37;7.17;;;;;;;-4.63;100.00;95160.13;5072527;28;20191;-60
2022/01/24 03:32:53;;;;;;;12.67;7.10;;;;;;;-4.81;100.00;95170.38;5071424;28;20341;-59
2022/01/24 03:35:19;;;;;;;11.77;7.43;;;;;;;-4.66;100.00;95166.78;5071417;28;20184;-66
2022/01/24 03:37:46;;;;;;;12.13;7.97;;;;;;;-4.65;100.00;95178.34;5073032;28;20636;-59
2022/01/24 03:40:11;;;;;;;11.00;7.13;;;;;;;-4.56;100.00;95174.03;5071196;28;20204;-61
2022/01/24 03:42:37;;;;;;;14.03;7.90;;;;;;;-4.46;100.00;95182.09;5070947;28;20807;-60
2022/01/24 03:45:08;;;;;;;19.43;10.30;;;;;;;-4.27;100.00;95185.88;5072686;28;20215;-62
2022/01/24 03:50:11;;;;;;;13.63;7.63;;;;;;;-3.81;100.00;95201.47;5072504;28;20185;-61
2022/01/24 03:52:37;;;;;;;14.40;7.43;;;;;;;-3.58;100.00;95211.75;5072218;28;20184;-66
2022/01/24 03:55:04;;;;;;;13.47;6.23;;;;;;;-3.41;100.00;95224.59;5072273;28;20192;-60
2022/01/24 03:57:29;;;;;;;18.20;7.50;;;;;;;-3.44;100.00;95219.72;5077766;23;20239;-65
2022/01/24 03:59:55;;;;;;;16.27;8.93;;;;;;;-3.36;100.00;95208.78;5072030;28;20225;-68
2022/01/24 04:02:23;;;;;;;22.83;11.80;;;;;;;-3.26;100.00;95218.50;5072285;28;20208;-66
2022/01/24 04:04:49;;;;;;;31.90;14.23;;;;;;;-3.28;100.00;95240.06;5072139;28;20232;-65
2022/01/24 04:07:16;;;;;;;30.90;15.83;;;;;;;-3.30;100.00;95218.59;5071889;28;20182;-61
2022/01/24 04:09:45;;;;;;;26.87;15.90;;;;;;;-3.22;100.00;95226.69;5070843;28;20208;-66
2022/01/24 04:12:12;;;;;;;26.90;14.17;;;;;;;-3.24;100.00;95223.41;5072182;28;20177;-63
2022/01/24 04:22:09;;;;;;;25.77;13.53;;;;;;;-3.17;100.00;95237.34;5072036;28;20182;-60
2022/01/24 04:24:35;;;;;;;25.00;12.33;;;;;;;-3.07;100.00;95244.53;5070813;28;20268;-60
2022/01/24 04:27:01;;;;;;;24.30;12.27;;;;;;;-3.19;100.00;95237.38;5071750;28;20180;-62
2022/01/24 04:29:29;;;;;;;17.10;10.60;;;;;;;-3.14;100.00;95242.25;5071490;28;20204;-61
2022/01/24 04:31:56;;;;;;;20.40;10.30;;;;;;;-3.11;100.00;95249.63;5073016;28;20623;-61
2022/01/24 04:34:30;;;;;;;19.50;11.03;;;;;;;-3.01;100.00;95270.94;5076233;28;20234;-59
2022/01/24 04:36:56;;;;;;;17.37;10.30;;;;;;;-3.14;100.00;95267.91;5075869;28;20188;-65
2022/01/24 04:39:22;;;;;;;16.80;8.70;;;;;;;-3.08;100.00;95270.25;5074228;28;20205;-65
2022/01/24 04:41:51;;;;;;;16.63;9.00;;;;;;;-3.04;100.00;95269.34;5075476;28;20180;-61
2022/01/24 04:44:50;;;;;;;13.33;7.77;;;;;;;-3.00;100.00;95282.53;5075390;28;20202;-66
2022/01/24 04:55:15;;;;;;;10.30;5.80;;;;;;;-3.25;100.00;95291.38;5075710;28;20270;-62
2022/01/24 04:57:40;;;;;;;10.27;6.00;;;;;;;-3.36;100.00;95291.59;5074712;28;20208;-61
2022/01/24 05:00:10;;;;;;;9.83;5.90;;;;;;;-3.31;100.00;95287.34;5075242;28;20188;-66
2022/01/24 05:02:36;;;;;;;10.93;5.40;;;;;;;-3.14;100.00;95304.38;5075228;28;20202;-67
2022/01/24 05:05:02;;;;;;;9.40;5.33;;;;;;;-3.22;100.00;95316.97;5075208;28;20219;-66
2022/01/24 05:07:27;;;;;;;9.20;5.60;;;;;;;-3.25;100.00;95319.50;5075004;28;20256;-65
2022/01/24 05:25:47;;;;;;;10.87;6.57;;;;;;;-3.37;100.00;95351.28;5034512;28;20762;-65
2022/01/24 05:28:12;;;;;;;10.27;6.83;;;;;;;-3.59;100.00;95359.13;5034197;28;20698;-61
2022/01/24 05:30:38;;;;;;;10.43;7.00;;;;;;;-3.36;100.00;95373.59;5034598;28;20187;-66
2022/01/24 05:33:03;;;;;;;13.20;8.43;;;;;;;-3.37;100.00;95376.13;5057611;23;20229;-66
2022/01/24 05:35:29;;;;;;;17.50;8.03;;;;;;;-3.41;100.00;95378.66;5074438;28;20611;-66
2022/01/24 05:37:54;;;;;;;13.07;7.17;;;;;;;-3.44;100.00;95363.81;5074573;28;20200;-66
2022/01/24 05:40:20;;;;;;;12.83;6.53;;;;;;;-3.46;100.00;95402.78;5074485;28;20180;-66
2022/01/24 05:42:45;;;;;;;13.77;7.10;;;;;;;-3.73;100.00;95355.28;5073921;28;20292;-67
2022/01/24 05:45:10;;;;;;;10.13;6.70;;;;;;;-3.63;100.00;95369.16;5073458;28;20250;-63
2022/01/24 05:47:36;;;;;;;11.47;6.63;;;;;;;-3.65;100.00;95388.25;5074180;28;20213;-62
2022/01/24 05:50:03;;;;;;;12.47;6.93;;;;;;;-3.49;100.00;95400.34;5074374;28;20252;-61
2022/01/24 05:52:28;;;;;;;13.30;6.20;;;;;;;-3.33;100.00;95408.31;5074055;28;20576;-65
2022/01/24 05:54:54;;;;;;;12.03;6.57;;;;;;;-3.11;100.00;95428.63;5074362;28;20171;-63
2022/01/24 05:57:19;;;;;;;11.77;6.97;;;;;;;-3.26;100.00;95423.94;5072979;28;20664;-61
2022/01/24 05:59:45;;;;;;;11.33;6.43;;;;;;;-3.34;100.00;95426.56;5074037;28;20184;-60
2022/01/24 06:02:10;;;;;;;9.90;6.33;;;;;;;-3.47;100.00;95440.06;5074070;28;20215;-65
2022/01/24 06:04:36;;;;;;;8.73;5.60;;;;;;;-3.18;100.00;95462.72;5073647;28;20232;-66
2022/01/24 06:07:01;;;;;;;11.53;5.50;;;;;;;-2.91;100.00;95504.44;5072525;28;20189;-59
2022/01/24 06:09:27;;;;;;;9.87;6.17;;;;;;;-2.89;100.00;95487.03;5072349;28;20200;-64
2022/01/24 06:11:53;;;;;;;10.17;4.67;;;;;;;-2.87;100.00;95495.28;5073577;28;20668;-62
2022/01/24 06:14:21;;;;;;;11.33;5.77;;;;;;;-2.75;100.00;95535.63;5073411;28;20230;-65
2022/01/24 06:16:46;;;;;;;9.63;5.27;;;;;;;-2.72;99.73;95542.22;5072075;28;20272;-65
2022/01/24 06:19:12;;;;;;;12.80;4.97;;;;;;;-2.59;98.36;95548.59;5073239;28;20204;-61
2022/01/24 06:21:38;;;;;;;6.93;4.27;;;;;;;-2.54;98.42;95541.84;5073180;28;20185;-61
2022/01/24 06:24:03;;;;;;;13.53;5.20;;;;;;;-2.48;98.81;95536.75;5073032;28;20206;-61
2022/01/24 06:26:30;;;;;;;7.10;4.47;;;;;;;-2.55;98.01;95542.72;5073071;28;20171;-65
2022/01/24 06:28:55;;;;;;;5.47;4.00;;;;;;;-2.44;97.15;95549.97;5078133;23;20319;-61
2022/01/24 06:31:21;;;;;;;8.87;4.33;;;;;;;-2.47;97.16;95557.50;5055013;28;20258;-61
2022/01/24 06:33:48;;;;;;;5.73;4.30;;;;;;;-2.60;97.42;95537.00;5077912;23;20227;-63
2022/01/24 06:36:15;;;;;;;8.63;4.87;;;;;;;-2.78;97.18;95533.22;5071965;28;20205;-63
2022/01/24 06:38:41;;;;;;;7.77;4.17;;;;;;;-2.71;96.70;95547.16;5071418;28;20302;-60
2022/01/24 06:41:06;;;;;;;7.43;3.50;;;;;;;-2.67;95.50;95570.31;5073091;28;20255;-59
2022/01/24 06:43:31;;;;;;;6.37;3.67;;;;;;;-2.57;95.02;95581.75;5073509;28;20213;-60
2022/01/24 06:45:57;;;;;;;6.53;4.00;;;;;;;-2.45;93.77;95603.91;5073235;28;20180;-65
2022/01/24 06:48:22;;;;;;;6.43;4.20;;;;;;;-2.45;93.34;95598.91;5073550;28;20213;-65
2022/01/24 06:50:49;;;;;;;7.23;4.70;;;;;;;-2.59;93.78;95593.41;5073313;28;20257;-66
2022/01/24 06:53:14;;;;;;;9.40;5.90;;;;;;;-2.67;93.87;95591.03;5055009;28;20227;-60
2022/01/24 06:55:40;;;;;;;11.20;6.33;;;;;;;-2.70;93.33;95602.72;5073326;28;20273;-68
2022/01/24 06:58:06;;;;;;;9.10;5.63;;;;;;;-2.73;93.87;95581.19;5073380;28;20276;-61
2022/01/24 07:00:32;;;;;;;8.53;5.27;;;;;;;-2.70;94.19;95572.84;5072048;28;20233;-62
2022/01/24 07:02:58;;;;;;;10.00;5.13;;;;;;;-2.40;90.91;95638.66;5072999;28;20638;-61
2022/01/24 07:05:25;;;;;;;8.90;4.73;;;;;;;-2.43;88.46;95678.53;5072583;28;20594;-61
2022/01/24 07:07:51;;;;;;;7.90;4.77;;;;;;;-2.59;88.36;95676.31;5072775;28;20201;-60
2022/01/24 07:10:16;;;;;;;8.23;3.97;;;;;;;-2.59;90.07;95630.72;5072519;28;20193;-61
2022/01/24 07:12:42;;;;;;;6.73;3.97;;;;;;;-2.72;91.38;95585.34;5071178;28;20208;-61
2022/01/24 07:15:12;;;;;;;10.03;4.83;;;;;;;-2.53;92.36;95592.44;5072439;28;20176;-65
2022/01/24 07:20:22;;;;;;;12.90;5.50;;;;;;;-2.38;93.97;95557.31;5032159;28;20282;-65
2022/01/24 07:22:47;;;;;;;8.87;5.00;;;;;;;-2.42;94.79;95550.75;5028776;28;20696;-60
2022/01/24 07:25:13;;;;;;;7.97;5.13;;;;;;;-2.24;93.88;95566.13;5012729;28;20218;-66
2022/01/24 07:27:39;;;;;;;7.67;4.60;;;;;;;-2.43;93.92;95574.00;5012799;28;21573;-64
2022/01/24 07:30:06;;;;;;;7.57;4.63;;;;;;;-2.09;92.41;95612.28;4995056;28;20229;-66
2022/01/24 07:32:31;;;;;;;9.40;6.87;;;;;;;-1.96;89.30;95681.75;5012301;28;20587;-67
2022/01/24 07:34:58;;;;;;;7.50;4.47;;;;;;;-1.88;90.37;95655.00;5012549;28;20180;-65
2022/01/24 07:37:25;;;;;;;6.23;3.57;;;;;;;-1.94;90.24;95657.63;5012168;28;20177;-66
2022/01/24 07:39:53;;;;;;;6.07;3.50;;;;;;;-1.92;90.41;95648.44;4978440;28;20196;-61
2022/01/24 07:42:50;;;;;;;5.97;3.70;;;;;;;-1.94;91.39;95627.72;4994831;28;20180;-65
2022/01/24 07:45:14;;;;;;;9.70;3.57;;;;;;;-1.79;90.31;95662.28;5012772;28;20215;-67
2022/01/24 07:47:40;;;;;;;7.77;3.73;;;;;;;-1.73;90.21;95671.31;5041984;23;20242;-67
2022/01/24 07:50:06;;;;;;;9.83;4.70;;;;;;;-1.80;90.08;95645.69;5073165;28;20201;-66
2022/01/24 07:52:32;;;;;;;5.40;3.73;;;;;;;-1.72;90.42;95653.81;5072943;28;20694;-62
2022/01/24 07:54:57;;;;;;;7.90;3.87;;;;;;;-1.62;89.80;95666.09;5072751;28;20282;-67
2022/01/24 07:57:23;;;;;;;6.13;3.93;;;;;;;-1.93;91.78;95633.53;5073323;28;20201;-60
2022/01/24 07:59:48;;;;;;;5.60;3.73;;;;;;;-1.82;92.03;95634.13;5072681;28;20538;-61
2022/01/24 08:02:14;;;;;;;4.70;3.93;;;;;;;-1.50;89.63;95689.09;5072006;28;20178;-61
2022/01/24 08:04:40;;;;;;;6.50;4.10;;;;;;;-1.53;89.25;95694.13;5070413;28;20579;-60
2022/01/24 08:07:08;;;;;;;5.80;3.67;;;;;;;-1.44;87.98;95716.38;5053543;28;20193;-61
2022/01/24 08:09:34;;;;;;;7.33;3.90;;;;;;;-1.47;87.93;95690.69;5071796;28;20195;-62
2022/01/24 08:11:59;;;;;;;4.67;3.40;;;;;;;-1.38;87.48;95713.75;5071957;28;20211;-65
2022/01/24 08:14:27;;;;;;;8.77;4.17;;;;;;;-1.35;87.68;95715.34;5071621;28;20199;-60
2022/01/24 08:16:53;;;;;;;5.40;3.93;;;;;;;-1.23;87.67;95720.88;5070307;28;20194;-65
2022/01/24 08:19:18;;;;;;;5.80;4.13;;;;;;;-1.25;88.83;95705.13;5071400;28;20203;-66
2022/01/24 08:21:45;;;;;;;7.33;4.53;;;;;;;-1.23;88.58;95710.91;5071414;28;20188;-66
2022/01/24 08:24:11;;;;;;;7.67;4.50;;;;;;;-1.03;88.85;95706.28;5071374;28;20292;-62
2022/01/24 08:26:37;;;;;;;9.93;5.40;;;;;;;-1.00;89.40;95697.91;5069990;28;20256;-61
2022/01/24 08:29:04;;;;;;;7.97;4.83;;;;;;;-0.97;88.51;95723.59;5070594;28;20652;-67
2022/01/24 08:31:29;;;;;;;6.73;3.87;;;;;;;-0.75;86.49;95766.38;5071990;28;20167;-65
2022/01/24 08:33:55;;;;;;;6.63;4.17;;;;;;;-0.73;87.15;95752.19;5071439;28;20296;-62
2022/01/24 08:36:20;;;;;;;9.37;4.33;;;;;;;-0.68;88.11;95734.59;5071303;28;20184;-61
2022/01/24 08:38:49;;;;;;;7.97;4.40;;;;;;;-0.42;87.69;95740.59;5071264;28;20195;-61
2022/01/24 08:41:22;;;;;;;6.53;3.83;;;;;;;-0.18;80.66;95764.94;5070076;28;20624;-67
2022/01/24 08:46:14;;;;;;;8.00;3.63;;;;;;;0.21;77.75;95814.75;5071286;28;20183;-63
2022/01/24 08:48:39;;;;;;;7.10;4.13;;;;;;;-0.03;77.45;95798.72;5071118;28;20239;-68
2022/01/24 08:51:06;;;;;;;5.53;4.20;;;;;;;0.15;76.19;95822.41;5069940;28;20641;-66
2022/01/24 08:53:33;;;;;;;8.77;4.10;;;;;;;0.25;73.53;95862.16;5071825;28;20197;-65
2022/01/24 08:56:01;;;;;;;7.13;4.80;;;;;;;-0.27;77.38;95772.69;5071079;28;20176;-60
2022/01/24 08:58:27;;;;;;;7.97;4.83;;;;;;;0.10;76.64;95781.72;5071589;28;20219;-59
2022/01/24 09:00:53;;;;;;;7.37;3.87;;;;;;;0.24;76.70;95790.53;5069823;28;20271;-66
2022/01/24 09:03:19;;;;;;;5.40;3.97;;;;;;;0.29;74.12;95838.69;5071134;28;20706;-65
2022/01/24 09:05:47;;;;;;;5.10;3.30;;;;;;;0.34;71.64;95886.09;5070955;28;20297;-65
2022/01/24 09:08:13;;;;;;;5.37;3.50;;;;;;;0.22;71.58;95873.91;5069713;28;20250;-65
2022/01/24 09:10:40;;;;;;;4.33;3.00;;;;;;;0.22;71.49;95871.41;5069577;28;20177;-60
2022/01/24 09:13:07;;;;;;;6.57;4.70;;;;;;;-0.36;74.84;95777.06;5071441;28;20213;-65
2022/01/24 09:15:33;;;;;;;8.70;5.60;;;;;;;-0.75;80.15;95684.00;5070872;28;20180;-61
2022/01/24 09:17:58;;;;;;;11.33;5.73;;;;;;;-0.56;79.52;95690.16;5070862;28;20215;-68
2022/01/24 09:20:24;;;;;;;8.47;5.30;;;;;;;-0.91;81.09;95677.75;5073832;28;20203;-61
2022/01/24 09:22:49;;;;;;;7.80;4.97;;;;;;;-0.37;77.62;95748.78;5074818;28;20716;-65
2022/01/24 09:25:17;;;;;;;8.47;4.73;;;;;;;0.32;74.84;95778.63;5074412;28;20322;-60
2022/01/24 09:27:45;;;;;;;8.70;5.40;;;;;;;0.11;75.37;95744.19;5073106;28;20261;-62
2022/01/24 09:30:13;;;;;;;9.13;5.73;;;;;;;-0.17;74.28;95746.59;5074537;28;20642;-67
2022/01/24 09:32:38;;;;;;;8.33;5.53;;;;;;;0.35;72.32;95800.22;5073077;28;20214;-66
2022/01/24 09:35:08;;;;;;;10.00;6.27;;;;;;;1.02;71.06;95826.66;5072982;28;20180;-67
2022/01/24 09:37:35;;;;;;;8.63;5.23;;;;;;;1.71;66.14;95929.81;5072807;28;20199;-61
2022/01/24 09:40:01;;;;;;;9.67;5.47;;;;;;;1.62;66.08;95903.31;5072915;28;20192;-64
2022/01/24 09:42:27;;;;;;;8.07;5.33;;;;;;;1.66;65.23;95894.84;5074129;28;20196;-64
2022/01/24 09:44:52;;;;;;;10.10;5.63;;;;;;;2.29;64.29;95916.25;5074128;28;20212;-65
2022/01/24 09:47:19;;;;;;;10.73;5.60;;;;;;;2.51;63.43;95939.78;5074481;28;20196;-67
2022/01/24 09:49:49;;;;;;;10.87;5.87;;;;;;;2.40;61.67;95934.31;5074175;28;20536;-67
2022/01/24 09:52:14;;;;;;;7.87;5.80;;;;;;;2.44;61.18;95929.13;5072902;28;20193;-65
2022/01/24 09:54:40;;;;;;;9.30;5.00;;;;;;;3.19;60.12;95929.91;5073862;28;20223;-66
2022/01/24 09:57:09;;;;;;;8.40;5.23;;;;;;;3.05;58.78;95958.00;5072539;28;20198;-59
2022/01/24 09:59:34;;;;;;;7.37;4.80;;;;;;;2.66;54.62;96007.06;5080295;23;20248;-62
2022/01/24 10:02:00;;;;;;;6.47;4.10;;;;;;;3.10;55.67;95982.97;5074088;28;20653;-62
2022/01/24 10:04:28;;;;;;;10.63;5.80;;;;;;;3.43;53.38;96025.31;5074033;28;20219;-60
2022/01/24 10:07:14;;;;;;;7.87;4.83;;;;;;;3.67;50.13;96055.53;5073959;28;20598;-62
2022/01/24 10:09:53;;;;;;;7.27;4.53;;;;;;;3.28;52.75;95932.09;5078177;23;20229;-64
2022/01/24 10:17:38;;;;;;;7.93;5.23;;;;;;;1.74;54.11;95873.75;5053304;28;20208;-63
2022/01/24 10:20:19;;;;;;;9.47;5.80;;;;;;;1.03;58.34;95761.53;5053511;28;20276;-63
2022/01/24 10:22:59;;;;;;;6.63;4.67;;;;;;;0.45;59.84;95721.56;5035125;28;20732;-65
2022/01/24 10:25:25;;;;;;;7.83;5.17;;;;;;;0.12;58.66;95755.84;5053055;28;20209;-64
2022/01/24 10:27:50;;;;;;;10.07;4.90;;;;;;;-0.07;60.40;95734.69;5053128;28;20224;-65
2022/01/24 10:30:16;;;;;;;6.50;4.17;;;;;;;-0.02;61.50;95700.38;5052684;28;20659;-64
2022/01/24 10:32:48;;;;;;;8.33;4.83;;;;;;;-0.30;62.76;95672.84;5053143;28;20627;-65
2022/01/24 10:35:39;;;;;;;6.03;4.80;;;;;;;-0.38;61.50;95707.19;5052928;28;20189;-64
2022/01/24 10:38:28;;;;;;;6.90;4.10;;;;;;;-0.48;63.89;95662.50;5053190;28;20208;-64
2022/01/24 10:41:11;;;;;;;7.30;3.90;;;;;;;-0.47;62.21;95697.44;5053168;28;20165;-65
2022/01/24 10:43:39;;;;;;;7.70;4.20;;;;;;;0.19;59.89;95752.31;5053148;28;20223;-65
2022/01/24 10:46:07;;;;;;;6.10;4.10;;;;;;;0.10;59.38;95766.75;5052866;28;20197;-65
2022/01/24 10:48:39;;;;;;;6.60;3.50;;;;;;;-0.28;60.64;95753.53;5052773;28;20197;-64
2022/01/24 10:51:08;;;;;;;4.33;3.47;;;;;;;0.04;57.91;95807.72;5052827;28;20647;-64
2022/01/24 10:53:49;;;;;;;5.87;3.73;;;;;;;0.06;60.03;95765.19;5053067;28;20228;-62
2022/01/24 10:56:44;;;;;;;6.97;4.07;;;;;;;-0.64;62.39;95698.69;5052957;28;20171;-65
2022/01/24 10:59:10;;;;;;;6.70;4.03;;;;;;;-0.35;61.41;95732.09;5031217;28;20603;-66
2022/01/24 11:01:37;;;;;;;7.67;4.77;;;;;;;0.10;61.49;95740.06;5052655;28;20177;-62
2022/01/24 11:04:06;;;;;;;7.17;4.70;;;;;;;0.19;61.93;95719.81;5052903;28;20212;-66
2022/01/24 11:06:38;;;;;;;6.97;4.27;;;;;;;0.11;63.70;95683.38;5053071;28;20169;-63
2022/01/24 11:09:10;;;;;;;8.37;4.60;;;;;;;0.26;63.34;95696.28;5052473;28;20212;-61
2022/01/24 11:11:36;;;;;;;5.00;3.23;;;;;;;0.30;62.52;95710.34;5052656;28;20227;-61
2022/01/24 11:14:01;;;;;;;7.37;3.90;;;;;;;0.22;64.11;95679.75;5052746;28;20686;-63
2022/01/24 11:16:27;;;;;;;7.37;4.13;;;;;;;0.03;65.41;95635.28;5052496;28;20177;-64
2022/01/24 11:18:54;;;;;;;8.83;5.20;;;;;;;-0.49;67.14;95598.47;5052357;28;20204;-63
2022/01/24 11:21:19;;;;;;;10.87;4.90;;;;;;;-0.49;67.94;95586.81;5052212;28;20173;-63
2022/01/24 11:23:45;;;;;;;9.50;5.10;;;;;;;-0.50;67.86;95610.13;5034307;28;20216;-62
2022/01/24 11:26:11;;;;;;;6.87;4.13;;;;;;;0.11;64.58;95688.38;5034149;28;20180;-64
2022/01/24 11:28:38;;;;;;;8.63;5.10;;;;;;;-0.36;68.22;95622.22;5033978;28;20303;-61
2022/01/24 11:31:19;;;;;;;9.73;5.13;;;;;;;0.11;67.58;95633.41;5052167;28;20176;-66
2022/01/24 11:33:54;;;;;;;6.93;5.10;;;;;;;0.46;65.92;95665.72;5052639;28;20209;-65
2022/01/24 11:36:36;;;;;;;6.63;4.40;;;;;;;0.44;64.70;95690.78;5052201;28;20193;-61
2022/01/24 11:39:02;;;;;;;8.70;4.40;;;;;;;0.25;64.81;95686.31;5052341;28;20247;-62
2022/01/24 11:41:34;;;;;;;5.77;4.53;;;;;;;0.75;62.71;95745.69;5051119;28;20184;-63
2022/01/24 11:44:15;;;;;;;7.27;4.57;;;;;;;0.88;61.10;95772.03;5052519;28;20213;-64
2022/01/24 11:46:52;;;;;;;6.93;4.70;;;;;;;1.38;58.64;95825.56;5051960;28;20169;-59
2022/01/24 11:49:38;;;;;;;8.67;5.30;;;;;;;1.76;58.50;95821.91;5052271;28;20213;-60
2022/01/24 11:52:18;;;;;;;6.03;4.20;;;;;;;0.97;56.86;95854.31;5052057;28;20644;-69
2022/01/24 11:57:15;;;;;;;6.40;4.07;;;;;;;1.34;51.50;95989.34;5052156;28;20181;-65
2022/01/24 11:59:41;;;;;;;7.07;4.07;;;;;;;0.78;56.06;95845.72;5052100;28;20247;-65
2022/01/24 12:02:09;;;;;;;8.70;3.80;;;;;;;0.46;56.40;95841.59;5051810;28;20181;-62
2022/01/24 12:04:56;;;;;;;5.20;3.40;;;;;;;1.24;54.24;95892.78;5033877;28;20277;-66
2022/01/24 12:07:30;;;;;;;6.07;4.03;;;;;;;1.42;52.46;95937.34;5033546;28;20220;-66
2022/01/24 12:10:38;;;;;;;7.47;4.13;;;;;;;1.65;54.16;95898.25;5051537;28;20616;-63
2022/01/24 12:13:15;;;;;;;6.37;4.20;;;;;;;0.73;53.62;95887.53;5061298;23;20217;-62
2022/01/24 12:15:43;;;;;;;6.10;3.90;;;;;;;0.72;53.29;95886.75;5071666;28;20169;-66
2022/01/24 12:18:10;;;;;;;5.70;4.10;;;;;;;0.83;54.57;95863.91;5071529;28;20205;-66
2022/01/24 12:20:35;;;;;;;5.80;3.50;;;;;;;0.59;55.00;95847.06;5071603;28;20187;-66
2022/01/24 12:23:32;;;;;;;6.57;4.20;;;;;;;0.03;56.35;95795.22;5071673;28;20200;-62
2022/01/24 12:26:09;;;;;;;5.13;3.80;;;;;;;-0.47;58.18;95749.88;5071449;28;20196;-60
2022/01/24 12:28:50;;;;;;;5.70;3.90;;;;;;;-0.27;58.88;95760.19;5071887;28;20204;-66
2022/01/24 12:31:36;;;;;;;7.77;4.20;;;;;;;-0.27;58.22;95756.88;5071273;28;20676;-68
2022/01/24 12:34:11;;;;;;;7.87;3.87;;;;;;;-0.40;59.47;95745.53;5070063;28;20307;-66
2022/01/24 12:36:37;;;;;;;7.17;3.83;;;;;;;-0.41;57.33;95797.19;5071261;28;20328;-59
2022/01/24 12:39:32;;;;;;;8.20;4.70;;;;;;;-0.27;59.63;95750.19;5071591;28;20253;-61
2022/01/24 12:42:04;;;;;;;7.73;4.50;;;;;;;-0.18;59.29;95759.13;5071288;28;20596;-65
2022/01/24 12:47:14;;;;;;;5.13;3.80;;;;;;;-0.73;59.92;95756.34;5076098;23;20177;-62
2022/01/24 12:49:42;;;;;;;7.03;3.93;;;;;;;-0.81;60.04;95745.72;5071306;28;20576;-63
2022/01/24 12:52:13;;;;;;;8.63;4.80;;;;;;;-1.24;60.52;95735.88;5071383;28;20181;-61
2022/01/24 12:54:45;;;;;;;10.73;4.40;;;;;;;-1.33;61.13;95711.97;5073619;28;20213;-63
2022/01/24 12:57:16;;;;;;;7.83;4.57;;;;;;;-1.08;60.50;95734.69;5075479;28;20191;-61
2022/01/24 12:59:58;;;;;;;10.00;5.70;;;;;;;-1.34;61.14;95717.00;5074976;28;20204;-60
2022/01/24 13:02:27;;;;;;;8.73;5.30;;;;;;;-1.33;60.80;95736.06;5074941;28;20168;-61
2022/01/24 13:05:00;;;;;;;9.83;4.30;;;;;;;-0.85;60.10;95754.97;5074868;28;20220;-62
2022/01/24 13:07:26;;;;;;;8.13;4.20;;;;;;;-0.85;60.05;95748.28;5074845;28;20185;-62
2022/01/24 13:10:00;;;;;;;8.53;5.40;;;;;;;-0.74;60.30;95740.53;5013531;23;20603;-60
2022/01/24 13:12:26;;;;;;;8.33;5.20;;;;;;;0.02;57.99;95813.59;5015009;28;20173;-62
2022/01/24 13:14:57;;;;;;;10.20;5.20;;;;;;;0.10;56.77;95831.72;5014148;28;20193;-64
2022/01/24 13:21:11;;;;;;;8.83;4.73;;;;;;;0.29;55.36;95862.88;5015045;28;20216;-61
2022/01/24 13:23:08;;;;;;;7.43;5.07;;;;;;;0.14;56.36;95829.13;5010148;28;20249;-61
2022/01/24 13:25:38;;;;;;;6.67;4.63;;;;;;;0.02;55.94;95834.41;5014733;28;20292;-66
2022/01/24 13:28:08;;;;;;;9.67;5.17;;;;;;;-0.79;57.09;95806.41;5014614;28;20218;-66
2022/01/24 13:30:40;;;;;;;7.37;5.00;;;;;;;-0.21;56.57;95821.66;5013355;28;20650;-65
2022/01/24 13:33:19;;;;;;;9.53;5.10;;;;;;;-0.26;56.87;95818.44;5014882;28;20236;-65
2022/01/24 13:35:51;;;;;;;10.83;5.47;;;;;;;-0.13;56.38;95828.13;5013549;28;20235;-67
2022/01/24 13:38:22;;;;;;;10.50;6.10;;;;;;;-0.45;56.11;95837.22;5013264;28;20221;-67
2022/01/24 13:41:03;;;;;;;7.30;5.03;;;;;;;-0.39;56.96;95822.09;5014528;28;20253;-61
2022/01/24 13:43:50;;;;;;;8.27;5.20;;;;;;;-0.49;56.85;95831.50;5014521;28;20213;-61
2022/01/24 13:46:25;;;;;;;9.30;5.90;;;;;;;-0.64;57.33;95823.53;5014390;28;20181;-63